METAR stanice u blizini

 

LYNI - Nis, Yugoslavia
Distance from station: JZ 40km
Ažurirano: 10/12/2019 23:30
Oblačno
Oblačno
 Pravac vetra SZ
Vetar: SZ 20 km/h
Temperatura: 5°C
Osećaj hladnoće: 1°C
Tačka rose: 3°C
Vlažnost: 87%
Pritisak: 1018 hPa
Oblaci: Oblačno
Vidljivost: 10 km
Cloud details: Oblačno 335 m
2019/12/10 22:30 LYNI 102230Z 32011KT 9999 OVC011 05/03 Q1018 NOSIG
LYKV - Kraljevo, Yugoslavia
Distance from station: ZSZ 136km
Ažurirano: 10/12/2019 23:30
Slaba kiša, Oblačno
Slaba kiša, Oblačno
 Pravac vetra ZSZ
Vetar: ZSZ 13 km/h
Temperatura: 4°C
Osećaj hladnoće: 1°C
Tačka rose: 4°C
Vlažnost: 100%
Pritisak: 1020 hPa
Pregled: Slaba kiša
Oblaci: Oblačno
Vidljivost: 10 km
Cloud details: Pretežno oblačno 457 m
Oblačno 2134 m
2019/12/10 22:30 LYKV 102230Z 29007KT 9999 -RA BKN015 OVC070 04/04 Q1020 NOSIG
LBSF - Sofia (observato, Bulgaria
Distance from station: JI 138km
Ažurirano: 10/12/2019 23:30
Mist, Oblačno
Mist, Oblačno
 Pravac vetra SZ
Vetar: SZ 6 km/h
Temperatura: 0°C
Tačka rose: -1°C
Vlažnost: 93%
Pritisak: 1016 hPa
Pregled: Mist
Oblaci: Oblačno
Vidljivost: 2 km
Cloud details: Pretežno oblačno 30 m
Oblačno 122 m
2019/12/10 22:30 LBSF 102230Z 31003KT 270V340 1800 BR BKN001 OVC004 M00/M01 Q1016 TEMPO 0800 FZFG
 
BKPR - Prishtina, Yugoslavia
Distance from station: JZ 147km
Ažurirano: 10/12/2019 23:30
Slaba kiša, Pretežno oblačno
Slaba kiša, Pretežno oblačno
 Pravac vetra S
Vetar: S 19 km/h
Temperatura: 4°C
Osećaj hladnoće: 0°C
Tačka rose: 1°C
Vlažnost: 81%
Pritisak: 1016 hPa
Pregled: Slaba kiša
Oblaci: Pretežno oblačno
Vidljivost: 10 km
Cloud details: Delimično oblačno 427 m
Pretežno oblačno 914 m
2019/12/10 22:30 BKPR 102230Z 01010KT 9999 -RA SCT014 BKN030 04/01 Q1016 NOSIG RMK 17290095
LRCV - Craiova, Romania
Distance from station: SI 154km
Ažurirano: 10/12/2019 23:30
Mist, Delimično oblačno
Mist, Delimično oblačno
 Pravac vetra I
Vetar: I 9 km/h
Temperatura: 3°C
Osećaj hladnoće: 0°C
Tačka rose: 2°C
Vlažnost: 93%
Pritisak: 1017 hPa
Pregled: Mist
Oblaci: Delimično oblačno
Vidljivost: 5 km
2019/12/10 22:30 LRCV 102230Z 10005KT 5000 BR NSC 03/02 Q1017
LWSK - Skopje/Petrovac, Macedonia
Distance from station: JJZ 185km
Ažurirano: 10/12/2019 23:30
Slaba kiša, Oblačno
Slaba kiša, Oblačno
 Pravac vetra calm
Vetar: Tišina
Temperatura: 6°C
Tačka rose: 5°C
Vlažnost: 93%
Pritisak: 1015 hPa
Pregled: Slaba kiša
Oblaci: Oblačno
Vidljivost: 10 km
Cloud details: Delimično oblačno 610 m
Oblačno 1219 m
2019/12/10 22:30 LWSK 102230Z 00000KT 9999 -RA SCT020 OVC040 06/05 Q1015 NOSIG
 
LYVR - Vrsac, Yugoslavia
Distance from station: SSZ 189km
Ažurirano: 10/12/2019 23:30
Oblačno
Oblačno
 Pravac vetra SSZ
Vetar: SSZ 9 km/h
Temperatura: 5°C
Osećaj hladnoće: 3°C
Tačka rose: 4°C
Vlažnost: 93%
Pritisak: 1019 hPa
Oblaci: Oblačno
Vidljivost: 10 km
Cloud details: Oblačno 244 m
2019/12/10 22:30 LYVR 102230Z AUTO 34005KT 9999 OVC008/// 05/04 Q1019
LYUZ - Uzice-Ponikve, Yugoslavia
Distance from station: Z 207km
Ažurirano: 10/12/2019 23:30
Freezing fog, Oblačno
Freezing fog, Oblačno
 Pravac vetra SZ
Vetar: SZ 24 km/h
Temperatura: -2°C
Osećaj hladnoće: -9°C
Tačka rose: -2°C
Vlažnost: 100%
Pritisak: 1017 hPa
Pregled: Freezing Fog
Oblaci: Oblačno
Vidljivost: 0 km
Cloud details: Oblačno 30 m
2019/12/10 22:30 LYUZ 102230Z AUTO 32013KT 0400 FZFG VV001 M02/M02 Q1017
LYBE - Belgrade/Surcin, Yugoslavia
Distance from station: SZ 209km
Ažurirano: 10/12/2019 23:30
Pretežno oblačno
Pretežno oblačno
 Pravac vetra SZ
Vetar: SZ 17 km/h
Temperatura: 5°C
Osećaj hladnoće: 2°C
Tačka rose: 4°C
Vlažnost: 93%
Pritisak: 1020 hPa
Oblaci: Pretežno oblačno
Vidljivost: 10 km
Cloud details: Delimično oblačno 366 m
Pretežno oblačno 610 m
2019/12/10 22:30 LYBE 102230Z 32009KT 9999 SCT012 BKN020 05/04 Q1020 NOSIG
 
LYBT - Batajnica, Yugoslavia
Distance from station: SZ 219km
Ažurirano: 10/12/2019 23:30
Pretežno oblačno
Pretežno oblačno
 Pravac vetra ZSZ
Vetar: ZSZ 19 km/h
Temperatura: 5°C
Osećaj hladnoće: 1°C
Tačka rose: 3°C
Vlažnost: 87%
Pritisak: 1020 hPa
Oblaci: Pretežno oblačno
Vidljivost: 10 km
Cloud details: Delimično oblačno 518 m
Pretežno oblačno 823 m
2019/12/10 22:30 LYBT 102230Z 30010KT 9999 SCT017 BKN027 05/03 Q1020 NOSIG
LRTR - Timisoara/Giarma, Romania
Distance from station: SSZ 260km
Ažurirano: 10/12/2019 23:30
Vedro
Vedro
 Pravac vetra S
Vetar: S 19 km/h
Temperatura: 4°C
Osećaj hladnoće: 0°C
Tačka rose: 2°C
Vlažnost: 87%
Pritisak: 1018 hPa
Pregled: Vedro
Vidljivost: greater than 10 km
2019/12/10 22:30 LRTR 102230Z 35010KT CAVOK 04/02 Q1018
LBPD - Plovdiv, Bulgaria
Distance from station: JI 263km
Ažurirano: 10/12/2019 23:30
Mist, Vedro
Mist, Vedro
 Pravac vetra ZJZ
Vetar: ZJZ 7 km/h
Temperatura: 1°C
Osećaj hladnoće: -2°C
Tačka rose: 0°C
Vlažnost: 93%
Pritisak: 1016 hPa
Pregled: Mist
Oblaci: Vedro
Vidljivost: 5 km
2019/12/10 22:30 LBPD 102230Z AUTO 24004KT 5000 BR NCD 01/00 Q1016
 
LYPG - Podgorica(Titogr, Yugoslavia
Distance from station: ZJZ 278km
Ažurirano: 10/12/2019 23:30
Pretežno oblačno
Pretežno oblačno
 Pravac vetra S
Vetar: S 35 km/h
Temperatura: 11°C
Tačka rose: -2°C
Vlažnost: 41%
Pritisak: 1011 hPa
Oblaci: Pretežno oblačno
Vidljivost: 10 km
Cloud details: Delimično oblačno 1219 m
Pretežno oblačno 2743 m
2019/12/10 22:30 LYPG 102230Z 01019KT 290V060 9999 SCT040 BKN090 11/M02 Q1011 NOSIG
LBGO - Gorna Orechovist, Bulgaria
Distance from station: I 285km
Ažurirano: 10/12/2019 23:30
Mist, Oblačno
Mist, Oblačno
 Pravac vetra SZ
Vetar: SZ 4 km/h
Temperatura: -1°C
Tačka rose: -1°C
Vlažnost: 100%
Pritisak: 1018 hPa
Pregled: Mist
Oblaci: Oblačno
Vidljivost: 4 km
Cloud details: Delimično oblačno 305 m
Oblačno 396 m
2019/12/10 22:30 LBGO 102230Z AUTO 31002KT 3500 BR SCT010 OVC013 M01/M01 Q1018
LRSB - Sibiu/Turnisor, Romania
Distance from station: SSI 286km
Ažurirano: 10/12/2019 23:30
Vedro
Vedro
 Pravac vetra calm
Vetar: Tišina
Temperatura: -2°C
Tačka rose: -2°C
Vlažnost: 100%
Pritisak: 1018 hPa
Oblaci: Vedro
Vidljivost: 3 km
2019/12/10 22:30 LRSB 102230Z AUTO 00000KT 2900 NCD M02/M02 Q1018
 
LWOH - Ohrid, Macedonia
Distance from station: JJZ 292km
Ažurirano: 10/12/2019 21:30
NOT Current
Oblačno
Oblačno
 Pravac vetra SSZ
Vetar: SSZ 15 km/h
Temperatura: 6°C
Osećaj hladnoće: 3°C
Tačka rose: 3°C
Vlažnost: 81%
Pritisak: 1010 hPa
Oblaci: Oblačno
Vidljivost: 10 km
Cloud details: Pretežno oblačno 305 m
Oblačno 1219 m
2019/12/10 20:30 LWOH 102030Z 34008KT 9999 BKN010 OVC040 06/03 Q1010
LQTZ - Tuzla, Yugoslavia
Distance from station: ZSZ 298km
Ažurirano: 10/12/2019 23:00
Slaba kiša, Sneg, Oblačno
Slaba kiša, Sneg, Oblačno
 Pravac vetra Z
Vetar: Z 9 km/h
Temperatura: 2°C
Osećaj hladnoće: -1°C
Tačka rose: 2°C
Vlažnost: 100%
Pritisak: 1022 hPa
Pregled: Slaba kiša, Sneg
Oblaci: Oblačno
Vidljivost: 7 km
Cloud details: Delimično oblačno 213 m
Pretežno oblačno 274 m
Oblačno 457 m
2019/12/10 22:00 LQTZ 102200Z 27005KT 7000 -RASN SCT007 BKN009 OVC015 02/02 Q1022
LRAR - Arad, Romania
Distance from station: SSZ 301km
Ažurirano: 10/12/2019 23:30
Vedro
Vedro
 Pravac vetra S
Vetar: S 17 km/h
Temperatura: 4°C
Osećaj hladnoće: 0°C
Tačka rose: 1°C
Vlažnost: 81%
Pritisak: 1019 hPa
Pregled: Vedro
Vidljivost: greater than 10 km
2019/12/10 22:30 LRAR 102230Z 01009KT CAVOK 04/01 Q1019
 
LYTV - Tivat, Yugoslavia
Distance from station: ZJZ 315km
Ažurirano: 10/12/2019 23:30
Vedro
Vedro
 Pravac vetra S
Vetar: S 26 km/h, Maks.: 50 km/h
Temperatura: 12°C
Tačka rose: -2°C
Vlažnost: 38%
Pritisak: 1010 hPa
Pregled: Vedro
Vidljivost: greater than 10 km
2019/12/10 22:30 LYTV 102230Z 01014G27KT CAVOK 12/M02 Q1010
LATI - Tirana, Albania
Distance from station: JZ 316km
Ažurirano: 10/12/2019 23:50
Pretežno oblačno
Pretežno oblačno
 Pravac vetra SSZ
Vetar: SSZ 17 km/h
Temperatura: 11°C
Tačka rose: 4°C
Vlažnost: 62%
Pritisak: 1007 hPa
Oblaci: Pretežno oblačno
Vidljivost: 10 km
Cloud details: Delimično oblačno 2987 m
Pretežno oblačno 3658 m
2019/12/10 22:50 LATI 102250Z 34009KT 9999 SCT098 BKN120 11/04 Q1007 NOSIG
LQBK - Banja Luka, Yugoslavia
Distance from station: SZ 426km
Ažurirano: 10/12/2019 23:30
Vedro
Vedro
 Pravac vetra S
Vetar: S 9 km/h
Temperatura: 5°C
Osećaj hladnoće: 3°C
Tačka rose: -1°C
Vlažnost: 66%
Pritisak: 1024 hPa
Pregled: Vedro
Vidljivost: greater than 10 km
2019/12/10 22:30 LQBK 102230Z 36005KT CAVOK 05/M01 Q1024 NOSIG
 
LDOS - Osijek, Croatia
Distance from station: SSZ 360km
Ažurirano: 10/12/2019 23:30
Few Clouds
Few Clouds
 Pravac vetra SSZ
Vetar: SSZ 20 km/h
Temperatura: 4°C
Osećaj hladnoće: -1°C
Tačka rose: 0°C
Vlažnost: 75%
Pritisak: 1022 hPa
Oblaci: Few Clouds
Vidljivost: 10 km
Cloud details: Few Clouds 1219 m
2019/12/10 22:30 LDOS 102230Z 34011KT 9999 FEW040 04/M00 Q1022
LDDU - Dubrovnik-Cilipi, Croatia
Distance from station: JZ 352km
Ažurirano: 10/12/2019 23:30
Vedro
Vedro
 Pravac vetra SSI
Vetar: SSI 56 km/h, Maks.: 83 km/h
Temperatura: 10°C
Osećaj hladnoće: 5°C
Tačka rose: -2°C
Vlažnost: 43%
Pritisak: 1009 hPa
Pregled: Vedro
Vidljivost: greater than 10 km
2019/12/10 22:30 LDDU 102230Z 03030G45KT 320V080 CAVOK 10/M02 Q1009 WS R11
LQMO - Mostar Airport, Bosnia-Herzegovina
Distance from station: Z 359km
Ažurirano: 10/12/2019 23:00
Delimično oblačno
Delimično oblačno
 Pravac vetra SSI
Vetar: SSI 39 km/h, Maks.: 70 km/h
Temperatura: 10°C
Osećaj hladnoće: 6°C
Tačka rose: -3°C
Vlažnost: 40%
Pritisak: 1011 hPa
Oblaci: Delimično oblačno
Vidljivost: 10 km
Cloud details: Few Clouds 1524 m
Delimično oblačno 2743 m
2019/12/10 22:00 LQMO 102200Z 02021G38KT 340V060 9999 FEW050 SCT090 10/M03 Q1011
 
LQSA - Sarajevo/Butmir, Yugoslavia
Distance from station: Z 311km
Ažurirano: 10/12/2019 23:00
Slaba kiša, Oblačno
Slaba kiša, Oblačno
 Pravac vetra SZ
Vetar: SZ 13 km/h
Temperatura: 2°C
Osećaj hladnoće: -1°C
Tačka rose: 1°C
Vlažnost: 93%
Pritisak: 1020 hPa
Pregled: Slaba kiša
Oblaci: Oblačno
Vidljivost: 10 km
Cloud details: Delimično oblačno 610 m
Oblačno 914 m
2019/12/10 22:00 LQSA 102200Z 31007KT 9999 -RA SCT020 OVC030 02/01 Q1020
LDSP - Split/Kastel Sta, Croatia
Distance from station: Z 468km
Ažurirano: 10/12/2019 23:30
Vedro
Vedro
 Pravac vetra SSI
Vetar: SSI 39 km/h, Maks.: 61 km/h
Temperatura: 9°C
Osećaj hladnoće: 4°C
Tačka rose: -3°C
Vlažnost: 43%
Pritisak: 1015 hPa
Pregled: Vedro
Vidljivost: greater than 10 km
2019/12/10 22:30 LDSP 102230Z AUTO 03021G33KT CAVOK 09/M03 Q1015
LDZD - Zadar/Zemunik, Croatia
Distance from station: ZSZ 567km
Ažurirano: 10/12/2019 23:30
Vedro
Vedro
 Pravac vetra SI
Vetar: SI 17 km/h
Temperatura: 7°C
Osećaj hladnoće: 4°C
Tačka rose: -6°C
Vlažnost: 39%
Pritisak: 1017 hPa
Pregled: Vedro
Vidljivost: greater than 10 km
2019/12/10 22:30 LDZD 102230Z 04009KT 350V080 CAVOK 07/M06 Q1017
 
LDZA - Zagreb/Pleso, Croatia
Distance from station: SZ 555km
Ažurirano: 10/12/2019 23:30
Vedro
Vedro
 Pravac vetra varies
Vetar: varies 2 km/h
Temperatura: -1°C
Tačka rose: -4°C
Vlažnost: 80%
Pritisak: 1024 hPa
Pregled: Vedro
Vidljivost: greater than 10 km
2019/12/10 22:30 LDZA 102230Z VRB01KT CAVOK M01/M04 Q1024 NOSIG
LJCE - Cerklje, Slovenia
Distance from station: SZ 680km
Ažurirano: 10/12/2019 23:30
Vedro
Vedro
 Pravac vetra Z
Vetar: Z 2 km/h
Temperatura: -2°C
Tačka rose: -3°C
Vlažnost: 93%
Pritisak: 1024 hPa
Oblaci: Vedro
Vidljivost: 10 km
2019/12/10 22:30 LJCE 102230Z AUTO 27001KT 9999 NCD M02/M03 Q1024
LJMB - Maribor, Slovenia
Distance from station: SZ 616km
Ažurirano: 10/12/2019 23:30
Vedro
Vedro
 Pravac vetra S
Vetar: S 13 km/h
Temperatura: 1°C
Osećaj hladnoće: -3°C
Tačka rose: -5°C
Vlažnost: 65%
Pritisak: 1024 hPa
Oblaci: Vedro
Vidljivost: 10 km
2019/12/10 22:30 LJMB 102230Z AUTO 36007KT 9999 NCD 01/M05 Q1024
 
LJLJ - Ljubljana/Brnik, Slovenia
Distance from station: SZ 671km
Ažurirano: 10/12/2019 23:30
Vedro
Vedro
 Pravac vetra ZSZ
Vetar: ZSZ 4 km/h
Temperatura: -5°C
Tačka rose: -6°C
Vlažnost: 93%
Pritisak: 1024 hPa
Pregled: Vedro
Vidljivost: greater than 10 km
2019/12/10 22:30 LJLJ 102230Z 30002KT CAVOK M05/M06 Q1024 NOSIG
LDRI - Rijeka, Croatia
Distance from station: SZ 650km
Ažurirano: 10/12/2019 23:30
Vedro
Vedro
 Pravac vetra ISI
Vetar: ISI 26 km/h, Maks.: 57 km/h
Temperatura: 7°C
Osećaj hladnoće: 3°C
Tačka rose: -7°C
Vlažnost: 37%
Pritisak: 1021 hPa
Pregled: Vedro
Vidljivost: greater than 10 km
2019/12/10 22:30 LDRI 102230Z 07014G31KT CAVOK 07/M07 Q1021
LDPL - Pula, Croatia
Distance from station: ZSZ 686km
Ažurirano: 10/12/2019 23:30
Vedro
Vedro
 Pravac vetra ISI
Vetar: ISI 28 km/h, Maks.: 46 km/h
Temperatura: 7°C
Osećaj hladnoće: 3°C
Tačka rose: -6°C
Vlažnost: 39%
Pritisak: 1020 hPa
Pregled: Vedro
Vidljivost: greater than 10 km
2019/12/10 22:30 LDPL 102230Z 06015G25KT CAVOK 07/M06 Q1020
 
LJPZ - Portorož, Slovenia
Distance from station: ZSZ 720km
Ažurirano: 10/12/2019 23:30
Vedro
Vedro
 Pravac vetra ISI
Vetar: ISI 20 km/h
Temperatura: 8°C
Osećaj hladnoće: 4°C
Tačka rose: -8°C
Vlažnost: 32%
Pritisak: 1022 hPa
Oblaci: Vedro
Vidljivost: 10 km
2019/12/10 22:30 LJPZ 102230Z AUTO 06011KT 010V100 9999 NCD 08/M08 Q1022